Time;durP1;ratioP1;P1;durP2;ratioP2;P2;SDS_P1;SDS_P2;PMS_P1;PMS_P2;Temp;Humidity;BMP_temperature;BMP_pressure;BME280_temperature;BME280_humidity;BME280_pressure;Samples;Min_cycle;Max_cycle;Signal;HPM_P1;HPM_P2
2022/03/11 00:02:39;;;;;;;25.60;23.37;;;;;;;21.67;22.73;95723.31;6185090;28;104224;-75
2022/03/11 00:05:42;;;;;;;27.00;24.67;;;;;;;21.69;23.17;95718.56;6181635;28;106036;-75
2022/03/11 00:08:44;;;;;;;28.17;25.87;;;;;;;21.67;22.85;95715.34;6203389;28;102898;-76
2022/03/11 00:11:46;;;;;;;33.10;30.30;;;;;;;21.67;23.13;95718.00;6194041;28;102678;-75
2022/03/11 00:14:48;;;;;;;25.77;23.67;;;;;;;21.66;22.70;95717.22;6195842;28;104914;-77
2022/03/11 00:17:49;;;;;;;31.03;28.33;;;;;;;21.66;22.72;95714.56;6190478;28;103630;-78
2022/03/11 00:20:51;;;;;;;27.00;24.70;;;;;;;21.65;22.70;95710.31;6197073;28;103433;-77
2022/03/11 00:23:53;;;;;;;27.73;25.40;;;;;;;21.64;22.86;95708.72;6199605;28;102631;-76
2022/03/11 00:26:56;;;;;;;26.33;24.13;;;;;;;21.65;22.71;95709.53;6196560;28;103128;-77
2022/03/11 00:29:57;;;;;;;25.50;23.40;;;;;;;21.65;22.69;95704.19;6196141;28;103146;-76
2022/03/11 00:33:00;;;;;;;31.73;29.03;;;;;;;21.66;22.66;95700.47;6177434;28;103345;-76
2022/03/11 00:36:02;;;;;;;29.40;26.83;;;;;;;21.61;22.58;95694.13;6219180;28;103007;-77
2022/03/11 00:39:04;;;;;;;27.67;25.27;;;;;;;21.63;22.73;95693.84;6198774;28;105557;-79
2022/03/11 00:42:06;;;;;;;25.40;23.20;;;;;;;21.61;22.48;95690.69;6218464;28;103267;-77
2022/03/11 00:45:09;;;;;;;32.53;29.67;;;;;;;21.61;23.01;95694.13;6172808;28;103396;-77
2022/03/11 00:48:10;;;;;;;31.97;29.27;;;;;;;21.62;22.88;95694.91;6185779;28;102958;-76
2022/03/11 00:51:12;;;;;;;26.73;24.37;;;;;;;21.61;22.42;95688.81;6173056;28;103560;-76
2022/03/11 00:54:14;;;;;;;23.50;21.40;;;;;;;21.61;22.42;95694.13;6196291;28;103866;-77
2022/03/11 00:57:16;;;;;;;35.33;32.23;;;;;;;21.61;22.66;95683.50;6197357;28;103811;-76
2022/03/11 01:00:18;;;;;;;30.00;27.50;;;;;;;21.61;22.55;95694.13;6195079;28;103218;-75
2022/03/11 01:03:20;;;;;;;26.13;23.87;;;;;;;21.58;22.52;95683.25;6194881;28;105390;-76
2022/03/11 01:06:22;;;;;;;27.77;25.27;;;;;;;21.58;22.43;95694.69;6178980;28;103260;-76
2022/03/11 01:09:24;;;;;;;29.63;27.13;;;;;;;21.59;22.32;95688.31;6203189;28;103298;-77
2022/03/11 01:12:26;;;;;;;25.20;22.93;;;;;;;21.60;22.53;95691.75;6197393;28;103284;-76
2022/03/11 01:15:28;;;;;;;23.10;21.20;;;;;;;21.60;22.36;95697.06;6190694;28;102958;-76
2022/03/11 01:18:30;;;;;;;31.80;29.07;;;;;;;21.58;23.21;95692.03;6204637;28;103257;-77
2022/03/11 01:21:32;;;;;;;28.10;25.67;;;;;;;21.54;22.66;95688.34;6194591;28;103072;-77
2022/03/11 01:24:34;;;;;;;26.03;23.80;;;;;;;21.58;22.33;95691.25;6176808;28;103333;-76
2022/03/11 01:27:39;;;;;;;24.80;22.70;;;;;;;21.57;22.32;95693.09;6178798;28;103577;-76
2022/03/11 01:30:41;;;;;;;24.70;22.60;;;;;;;21.57;22.13;95692.31;6196417;28;103267;-76
2022/03/11 01:33:45;;;;;;;21.77;19.90;;;;;;;21.57;22.28;95700.28;6205259;28;104930;-76
2022/03/11 01:36:47;;;;;;;20.70;19.00;;;;;;;21.59;22.43;95698.94;6205277;28;103622;-76
2022/03/11 01:39:49;;;;;;;22.67;20.77;;;;;;;21.56;22.27;95706.69;6217613;28;103191;-76
2022/03/11 01:42:51;;;;;;;19.80;18.10;;;;;;;21.55;22.13;95700.56;6190675;28;104954;-77
2022/03/11 01:45:54;;;;;;;22.90;20.90;;;;;;;21.55;22.39;95700.56;6190457;28;103059;-79
2022/03/11 01:49:00;;;;;;;20.73;18.93;;;;;;;21.55;22.20;95703.22;6202483;28;103767;-76
2022/03/11 01:52:02;;;;;;;20.07;18.40;;;;;;;21.54;22.13;95698.19;6214831;28;105068;-76
2022/03/11 01:55:05;;;;;;;17.13;15.70;;;;;;;21.54;22.00;95695.53;6188560;28;103577;-76
2022/03/11 01:58:08;;;;;;;17.57;16.07;;;;;;;21.56;22.15;95696.06;6196725;28;106099;-76
2022/03/11 02:01:10;;;;;;;16.90;15.50;;;;;;;21.55;21.84;95689.16;6167711;28;105337;-77
2022/03/11 02:04:12;;;;;;;19.27;17.57;;;;;;;21.54;22.08;95699.00;6193198;28;103728;-76
2022/03/11 02:07:14;;;;;;;15.13;13.93;;;;;;;21.53;21.77;95700.06;6187722;28;103349;-76
2022/03/11 02:10:16;;;;;;;15.40;14.00;;;;;;;21.44;21.99;95677.78;6185048;28;105349;-75
2022/03/11 02:13:18;;;;;;;15.70;14.40;;;;;;;21.54;22.22;95700.84;6212109;28;103049;-77
2022/03/11 02:16:22;;;;;;;15.60;14.20;;;;;;;21.55;21.90;95697.13;6183362;28;103426;-76
2022/03/11 02:19:24;;;;;;;15.00;13.80;;;;;;;21.54;22.05;95698.19;6187628;28;103219;-77
2022/03/11 02:22:27;;;;;;;15.30;13.90;;;;;;;21.52;22.08;95695.03;6179638;28;103309;-74
2022/03/11 02:25:29;;;;;;;14.97;13.67;;;;;;;21.51;22.20;95696.91;6207023;28;102920;-75
2022/03/11 02:28:34;;;;;;;14.90;13.70;;;;;;;21.53;21.73;95701.94;6177753;28;102988;-75
2022/03/11 02:31:36;;;;;;;13.67;12.60;;;;;;;21.53;21.59;95694.75;6184293;28;102954;-76
2022/03/11 02:34:38;;;;;;;13.53;12.43;;;;;;;21.52;21.85;95705.66;6178316;28;105413;-76
2022/03/11 02:37:40;;;;;;;13.83;12.70;;;;;;;21.52;21.79;95697.69;6187543;28;105055;-75
2022/03/11 02:40:42;;;;;;;17.23;15.80;;;;;;;21.52;21.98;95706.47;6211146;28;102781;-77
2022/03/11 02:43:45;;;;;;;13.80;12.70;;;;;;;21.51;21.89;95704.09;6213081;28;103019;-77
2022/03/11 02:46:46;;;;;;;18.30;16.80;;;;;;;21.47;21.71;95692.41;6216822;28;104052;-77
2022/03/11 02:49:48;;;;;;;13.00;12.00;;;;;;;21.50;21.46;95702.47;6199859;28;103111;-77
2022/03/11 02:52:50;;;;;;;12.20;11.20;;;;;;;21.48;21.79;95702.75;6186615;28;103328;-76
2022/03/11 02:55:52;;;;;;;14.30;13.10;;;;;;;21.49;21.80;95706.19;6191335;28;104042;-77
2022/03/11 02:58:54;;;;;;;15.03;13.70;;;;;;;21.47;21.75;95719.78;6167590;28;103384;-75
2022/03/11 03:01:56;;;;;;;12.60;11.60;;;;;;;21.47;21.74;95709.13;6188882;28;103321;-77
2022/03/11 03:04:58;;;;;;;12.00;11.00;;;;;;;21.48;21.55;95709.94;6185241;28;103680;-76
2022/03/11 03:08:00;;;;;;;13.70;12.50;;;;;;;21.48;21.66;95701.94;6214970;28;103274;-76
2022/03/11 03:11:02;;;;;;;12.50;11.50;;;;;;;21.46;21.37;95704.91;6194719;28;103121;-75
2022/03/11 03:14:04;;;;;;;13.03;11.83;;;;;;;21.46;21.82;95714.75;6193371;28;103436;-75
2022/03/11 03:17:06;;;;;;;11.10;10.20;;;;;;;21.48;21.52;95716.03;6194069;28;103125;-75
2022/03/11 03:20:09;;;;;;;10.77;9.93;;;;;;;21.47;21.62;95708.34;6199834;28;103152;-76
2022/03/11 03:23:10;;;;;;;10.90;10.00;;;;;;;21.46;21.50;95707.56;6209655;28;103095;-76
2022/03/11 03:26:12;;;;;;;11.20;10.20;;;;;;;21.46;21.71;95704.09;6183172;28;104338;-78
2022/03/11 03:29:14;;;;;;;11.03;10.03;;;;;;;21.47;21.76;95709.13;6203930;28;103125;-75
2022/03/11 03:32:16;;;;;;;9.90;9.10;;;;;;;21.47;21.60;95719.78;6179741;28;103114;-75
2022/03/11 03:35:18;;;;;;;9.30;8.57;;;;;;;21.47;21.98;95718.97;6174815;28;103093;-76
2022/03/11 03:38:20;;;;;;;10.37;9.57;;;;;;;21.46;21.36;95720.06;6206974;28;103047;-75
2022/03/11 03:41:21;;;;;;;9.97;9.17;;;;;;;21.46;21.21;95720.84;6207312;28;102614;-75
2022/03/11 03:44:23;;;;;;;10.70;9.80;;;;;;;21.45;21.44;95716.59;6207517;28;103198;-75
2022/03/11 03:47:25;;;;;;;10.80;9.90;;;;;;;21.43;21.58;95721.41;6211080;28;103356;-76
2022/03/11 03:50:29;;;;;;;9.37;8.67;;;;;;;21.43;21.53;95718.75;6186047;28;103138;-75
2022/03/11 03:53:30;;;;;;;10.67;9.77;;;;;;;21.43;21.14;95725.94;6198850;28;102788;-76
2022/03/11 03:56:35;;;;;;;10.57;9.67;;;;;;;21.43;21.75;95723.28;6186408;28;102693;-77
2022/03/11 03:59:39;;;;;;;10.30;9.50;;;;;;;21.44;21.25;95719.53;6175593;28;106484;-77
2022/03/11 04:02:45;;;;;;;8.90;8.20;;;;;;;21.42;21.46;95729.66;6216491;28;103167;-76
2022/03/11 04:05:47;;;;;;;8.80;8.10;;;;;;;21.42;21.36;95730.44;6199059;28;103194;-76
2022/03/11 04:08:49;;;;;;;8.37;7.77;;;;;;;21.41;21.99;95728.88;6172391;28;103939;-75
2022/03/11 04:11:51;;;;;;;8.97;8.37;;;;;;;21.43;21.71;95732.03;6176622;28;105282;-75
2022/03/11 04:14:52;;;;;;;8.87;8.20;;;;;;;21.42;21.53;95733.13;6211269;28;103446;-76
2022/03/11 04:17:54;;;;;;;9.60;8.90;;;;;;;21.46;21.11;95738.66;6192496;28;103306;-77
2022/03/11 04:20:56;;;;;;;8.17;7.37;;;;;;;21.41;21.69;95741.38;6201832;28;106106;-76
2022/03/11 04:23:58;;;;;;;7.93;7.30;;;;;;;21.43;21.49;95749.84;6173832;28;103315;-76
2022/03/11 04:27:00;;;;;;;7.53;6.93;;;;;;;21.45;22.09;95755.69;6184256;28;102849;-75
2022/03/11 04:30:02;;;;;;;8.37;7.70;;;;;;;21.43;21.62;95753.31;6191042;28;104283;-74
2022/03/11 04:33:04;;;;;;;7.20;6.60;;;;;;;21.43;21.60;95757.84;6204789;28;104798;-74
2022/03/11 04:36:06;;;;;;;8.03;7.30;;;;;;;21.44;21.27;95759.41;6198978;28;103022;-73
2022/03/11 04:39:08;;;;;;;7.73;7.13;;;;;;;21.41;21.41;95759.97;6195820;28;105225;-77
2022/03/11 04:42:10;;;;;;;7.73;7.03;;;;;;;21.41;22.02;95754.66;6199851;28;102888;-76
2022/03/11 04:45:12;;;;;;;7.17;6.57;;;;;;;21.46;22.80;95749.28;6197735;28;103589;-77
2022/03/11 04:48:14;;;;;;;7.60;6.90;;;;;;;21.56;23.52;95754.53;6196423;28;103078;-76
2022/03/11 04:51:16;;;;;;;8.43;6.57;;;;;;;21.66;23.37;95757.09;6192302;28;104020;-76
2022/03/11 04:54:18;;;;;;;6.77;6.17;;;;;;;21.77;23.14;95750.63;6191239;28;103575;-76
2022/03/11 04:57:20;;;;;;;6.70;6.20;;;;;;;21.96;23.67;95763.25;6188567;28;103457;-76
2022/03/11 05:00:22;;;;;;;7.20;6.60;;;;;;;21.92;23.52;95757.69;6169010;28;103793;-76
2022/03/11 05:03:23;;;;;;;7.63;6.90;;;;;;;;;;6195229;28;103924;-74
2022/03/11 05:06:26;;;;;;;7.60;7.00;;;;;;;22.04;23.97;95765.31;6187781;28;106110;-76
2022/03/11 05:09:28;;;;;;;9.87;7.27;;;;;;;22.08;23.82;95761.81;6076140;28;104262;-75
2022/03/11 05:12:31;;;;;;;7.30;6.70;;;;;;;22.17;24.54;95769.97;6194129;28;104491;-76
2022/03/11 05:15:37;;;;;;;7.63;6.93;;;;;;;22.16;24.47;95771.06;6189110;28;106165;-76
2022/03/11 05:18:42;;;;;;;7.40;6.80;;;;;;;22.23;24.26;95773.41;6164104;28;106309;-82
2022/03/11 05:21:45;;;;;;;7.60;6.80;;;;;;;22.15;23.97;95772.91;6174288;28;103119;-76
2022/03/11 05:24:47;;;;;;;6.87;6.27;;;;;;;21.99;23.55;95778.63;6175091;28;105934;-73
2022/03/11 05:27:49;;;;;;;7.00;6.40;;;;;;;21.86;23.75;95788.09;6140631;28;103150;-74
2022/03/11 05:30:52;;;;;;;7.63;6.93;;;;;;;21.79;23.27;95790.25;6145457;28;103105;-75
2022/03/11 05:33:55;;;;;;;7.00;6.50;;;;;;;21.73;23.29;95784.19;6143284;28;103374;-75
2022/03/11 05:36:56;;;;;;;6.80;6.30;;;;;;;21.70;23.12;95797.25;6157831;28;103430;-76
2022/03/11 05:40:15;;;;;;;6.93;6.33;;;;;;;21.66;22.77;95786.34;6161213;28;103171;-77
2022/03/11 05:43:30;;;;;;;7.40;6.80;;;;;;;21.66;22.79;95802.31;6145187;28;103313;-76
2022/03/11 05:46:32;;;;;;;6.47;5.97;;;;;;;21.61;22.62;95799.69;6144691;28;103081;-75
2022/03/11 05:49:34;;;;;;;6.87;6.37;;;;;;;21.60;22.58;95796.25;6156661;28;103374;-76
2022/03/11 05:52:40;;;;;;;7.37;6.73;;;;;;;21.60;22.52;95798.13;6161248;28;103007;-74
2022/03/11 05:55:42;;;;;;;6.67;6.10;;;;;;;21.58;22.36;95797.59;6163617;28;102627;-73
2022/03/11 05:58:44;;;;;;;6.60;6.10;;;;;;;21.58;22.40;95800.25;6157848;28;103049;-74
2022/03/11 06:01:46;;;;;;;6.37;5.87;;;;;;;21.58;22.19;95785.09;6145442;28;103029;-74
2022/03/11 06:04:48;;;;;;;5.70;5.30;;;;;;;21.63;22.28;95797.56;6162849;28;103274;-73
2022/03/11 06:07:50;;;;;;;6.27;5.77;;;;;;;21.64;22.03;95796.47;6162237;28;103035;-74
2022/03/11 06:10:52;;;;;;;6.53;5.93;;;;;;;21.66;21.73;95802.31;6158180;28;105252;-73
2022/03/11 06:13:54;;;;;;;7.00;6.40;;;;;;;21.71;21.70;95796.97;6161661;28;103006;-74
2022/03/11 06:16:55;;;;;;;7.30;6.60;;;;;;;21.77;21.62;95795.84;6162155;28;103145;-72
2022/03/11 06:19:57;;;;;;;6.60;6.10;;;;;;;21.85;21.35;95805.91;6163230;28;104948;-74
2022/03/11 06:23:00;;;;;;;6.50;6.00;;;;;;;21.88;21.32;95809.88;6158276;28;103083;-74
2022/03/11 06:26:03;;;;;;;6.80;6.20;;;;;;;21.87;21.15;95810.94;6187241;28;106228;-74
2022/03/11 06:29:05;;;;;;;7.20;6.70;;;;;;;21.86;21.33;95815.47;6169223;28;103129;-72
2022/03/11 06:32:07;;;;;;;6.40;5.90;;;;;;;21.83;21.13;95824.00;6165440;28;103739;-74
2022/03/11 06:35:30;;;;;;;6.17;5.67;;;;;;;21.81;21.21;95828.78;6187396;28;103300;-79
2022/03/11 06:38:32;;;;;;;6.87;6.30;;;;;;;21.79;21.14;95825.63;6169187;28;102693;-72
2022/03/11 06:41:33;;;;;;;6.30;5.80;;;;;;;21.76;21.25;95823.53;6169208;28;102993;-75
2022/03/11 06:44:35;;;;;;;6.40;5.90;;;;;;;21.75;21.17;95829.13;6182027;28;103528;-74
2022/03/11 06:47:38;;;;;;;6.43;5.83;;;;;;;21.74;21.21;95828.34;6185478;28;103277;-74
2022/03/11 06:50:40;;;;;;;5.67;5.20;;;;;;;21.79;21.34;95832.81;6169018;28;103283;-75
2022/03/11 06:53:41;;;;;;;6.30;5.80;;;;;;;21.79;21.27;95833.59;6164270;28;102785;-74
2022/03/11 06:56:43;;;;;;;6.33;5.73;;;;;;;21.80;21.34;95824.56;6170438;28;103088;-76
2022/03/11 06:59:45;;;;;;;6.70;6.20;;;;;;;21.95;20.91;95830.81;6189342;28;105934;-75
2022/03/11 07:02:47;;;;;;;7.27;6.67;;;;;;;22.05;20.75;95834.25;6189046;28;103055;-75
2022/03/11 07:05:49;;;;;;;6.67;6.17;;;;;;;21.97;21.09;95831.34;6185446;28;105730;-75
2022/03/11 07:08:51;;;;;;;6.67;6.17;;;;;;;22.15;20.50;95839.47;6170911;28;103130;-77
2022/03/11 07:11:57;;;;;;;6.37;5.87;;;;;;;22.24;20.60;95834.34;6189356;28;103157;-75
2022/03/11 07:15:03;;;;;;;6.30;5.80;;;;;;;22.39;20.53;95839.53;6190065;28;103982;-78
2022/03/11 07:18:05;;;;;;;6.70;6.20;;;;;;;22.32;20.47;95840.91;6185751;28;103072;-74
2022/03/11 07:21:08;;;;;;;7.00;6.50;;;;;;;22.25;20.82;95843.13;6189314;28;103155;-78
2022/03/11 07:24:09;;;;;;;7.43;6.83;;;;;;;22.35;20.36;95841.16;6189532;28;102765;-77
2022/03/11 07:27:15;;;;;;;7.60;7.00;;;;;;;22.51;20.57;95847.94;6187567;28;103034;-77
2022/03/11 07:30:17;;;;;;;6.63;6.13;;;;;;;22.42;20.80;95835.50;6173205;28;103065;-76
2022/03/11 07:33:18;;;;;;;6.90;6.30;;;;;;;22.33;20.75;95835.31;6171567;28;103069;-76
2022/03/11 07:36:20;;;;;;;6.70;6.10;;;;;;;22.25;20.86;95837.78;6189023;28;102951;-75
2022/03/11 07:39:22;;;;;;;6.50;6.00;;;;;;;22.18;20.95;95830.16;6165581;28;103377;-76
2022/03/11 07:42:24;;;;;;;6.70;6.10;;;;;;;22.14;21.11;95832.53;6188645;28;103080;-76
2022/03/11 07:45:26;;;;;;;7.80;7.10;;;;;;;22.17;20.67;95839.19;6188633;28;103059;-77
2022/03/11 07:48:28;;;;;;;6.40;5.93;;;;;;;22.14;21.12;95834.41;6186242;28;103137;-76
2022/03/11 07:51:30;;;;;;;7.00;6.40;;;;;;;22.14;20.98;95835.22;6188720;28;103037;-77
2022/03/11 07:54:32;;;;;;;6.60;6.10;;;;;;;22.33;20.80;95831.84;6171826;28;103873;-76
2022/03/11 07:57:36;;;;;;;6.70;6.20;;;;;;;22.36;20.89;95837.44;6171669;28;103084;-75
2022/03/11 08:00:41;;;;;;;6.83;6.27;;;;;;;22.30;20.80;95841.19;6164424;28;103069;-76
2022/03/11 08:03:43;;;;;;;7.10;6.50;;;;;;;22.25;21.03;95849.22;6170528;28;102924;-76
2022/03/11 08:06:45;;;;;;;6.73;6.13;;;;;;;22.23;21.18;95843.41;6168332;28;105351;-76
2022/03/11 08:09:47;;;;;;;6.33;5.80;;;;;;;22.18;20.42;95844.25;6170192;28;103506;-77
2022/03/11 08:12:50;;;;;;;5.90;5.40;;;;;;;22.17;21.03;95844.50;6166420;28;103256;-78
2022/03/11 08:15:53;;;;;;;6.57;6.07;;;;;;;22.18;20.91;95846.13;6170706;28;103009;-77
2022/03/11 08:18:57;;;;;;;5.63;5.13;;;;;;;22.24;21.06;95844.97;6168261;28;102974;-78
2022/03/11 08:21:59;;;;;;;6.10;5.60;;;;;;;22.46;20.65;95834.66;6163693;28;103430;-76
2022/03/11 08:25:01;;;;;;;6.13;5.63;;;;;;;22.60;20.39;95833.97;6169336;28;103788;-75
2022/03/11 08:28:07;;;;;;;5.60;5.20;;;;;;;22.73;20.64;95841.31;6168444;28;104300;-77
2022/03/11 08:31:09;;;;;;;5.60;5.20;;;;;;;22.80;20.55;95828.41;6169853;28;103021;-79
2022/03/11 08:34:11;;;;;;;5.53;5.13;;;;;;;22.78;20.53;95835.91;6166060;28;105375;-78
2022/03/11 08:37:13;;;;;;;5.83;5.33;;;;;;;22.86;20.43;95832.66;6168714;28;103065;-76
2022/03/11 08:40:15;;;;;;;5.10;4.77;;;;;;;22.89;20.34;95829.41;6168164;28;103172;-76
2022/03/11 08:43:18;;;;;;;5.50;5.10;;;;;;;22.83;20.63;95829.75;6167765;28;103155;-76
2022/03/11 08:46:21;;;;;;;5.60;5.20;;;;;;;22.71;20.50;95822.16;6166281;28;102996;-77
2022/03/11 08:49:23;;;;;;;5.20;4.80;;;;;;;22.62;20.89;95829.16;6168778;28;103013;-76
2022/03/11 08:52:25;;;;;;;5.60;5.20;;;;;;;22.68;20.95;95828.03;6168067;28;103090;-76
2022/03/11 08:55:29;;;;;;;5.47;5.07;;;;;;;22.74;20.72;95822.38;6162405;28;103477;-78
2022/03/11 08:58:37;;;;;;;5.20;4.80;;;;;;;22.76;20.57;95812.22;6167068;28;103060;-77
2022/03/11 09:01:39;;;;;;;5.20;4.80;;;;;;;22.79;20.69;95813.50;6189575;28;105660;-77
2022/03/11 09:04:43;;;;;;;5.60;5.10;;;;;;;22.84;20.33;95816.13;6192811;28;103715;-77
2022/03/11 09:07:45;;;;;;;5.63;5.23;;;;;;;22.85;20.36;95817.75;6190044;28;103044;-75
2022/03/11 09:10:47;;;;;;;5.87;5.40;;;;;;;22.89;20.67;95815.31;6193524;28;102774;-75
2022/03/11 09:13:49;;;;;;;5.23;4.83;;;;;;;22.91;20.58;95821.94;6195137;28;103416;-76
2022/03/11 09:16:51;;;;;;;4.80;4.50;;;;;;;22.96;20.61;95821.06;6195346;28;103643;-76
2022/03/11 09:19:54;;;;;;;5.50;5.00;;;;;;;22.90;20.91;95814.22;6177491;28;103171;-75
2022/03/11 09:23:14;;;;;;;4.60;4.20;;;;;;;22.80;20.89;95813.22;6178830;28;103023;-75
2022/03/11 09:26:16;;;;;;;4.90;4.60;;;;;;;22.80;20.44;95815.09;6176717;28;106056;-76
2022/03/11 09:29:18;;;;;;;5.10;4.70;;;;;;;22.74;20.97;95822.38;6190156;28;103320;-77
2022/03/11 09:32:24;;;;;;;4.30;4.00;;;;;;;22.69;20.70;95818.97;6176674;28;102739;-76
2022/03/11 09:35:26;;;;;;;5.03;4.63;;;;;;;22.63;20.72;95814.75;6176217;28;107035;-78
2022/03/11 09:38:28;;;;;;;4.90;4.60;;;;;;;22.57;21.01;95811.38;6191228;28;103727;-75
2022/03/11 09:41:31;;;;;;;4.40;4.00;;;;;;;22.54;21.04;95814.59;6173938;28;105194;-77
2022/03/11 09:44:33;;;;;;;5.10;4.70;;;;;;;22.61;20.98;95808.94;6175542;28;103000;-76
2022/03/11 09:47:38;;;;;;;4.60;4.30;;;;;;;22.55;21.06;95816.19;6175152;28;103006;-76
2022/03/11 09:50:41;;;;;;;5.10;4.70;;;;;;;22.54;20.88;95816.47;6188676;28;105114;-78
2022/03/11 09:53:43;;;;;;;5.37;4.60;;;;;;;22.50;21.00;95810.91;6175141;28;103658;-76
2022/03/11 09:56:45;;;;;;;4.70;4.33;;;;;;;22.45;21.08;95803.78;6174113;28;102845;-77
2022/03/11 09:59:47;;;;;;;5.00;4.60;;;;;;;22.45;20.93;95813.63;6175164;28;104985;-76
2022/03/11 10:02:58;;;;;;;4.97;4.67;;;;;;;22.41;20.78;95809.94;6173069;28;103816;-76
2022/03/11 10:06:00;;;;;;;4.83;4.43;;;;;;;22.37;20.92;95801.75;6174549;28;102579;-76
2022/03/11 10:09:02;;;;;;;4.67;4.37;;;;;;;22.32;21.03;95798.31;6191983;28;102927;-77
2022/03/11 10:12:06;;;;;;;4.90;4.43;;;;;;;22.31;20.92;95800.19;6169643;28;102854;-77
2022/03/11 10:15:08;;;;;;;4.87;4.53;;;;;;;22.26;20.98;95805.56;6173506;28;103504;-76
2022/03/11 10:18:10;;;;;;;5.03;4.63;;;;;;;22.23;20.90;95803.47;6191189;28;103238;-77
2022/03/11 10:21:12;;;;;;;4.40;4.10;;;;;;;22.20;20.92;95806.69;6174437;28;103639;-76
2022/03/11 10:24:17;;;;;;;4.87;4.57;;;;;;;22.18;20.87;95800.88;6168409;28;103420;-75
2022/03/11 10:27:19;;;;;;;4.53;4.23;;;;;;;22.19;21.00;95794.47;6173197;28;103391;-77
2022/03/11 10:30:42;;;;;;;4.50;4.20;;;;;;;22.20;20.85;95790.72;6193122;28;105110;-77
2022/03/11 10:33:44;;;;;;;4.77;4.37;;;;;;;22.21;21.21;95797.63;6170819;28;103061;-77
2022/03/11 10:36:48;;;;;;;5.80;4.57;;;;;;;22.26;20.99;95789.59;6191633;28;103211;-76
2022/03/11 10:39:50;;;;;;;5.17;4.77;;;;;;;22.27;20.55;95791.19;6174173;28;102778;-75
2022/03/11 10:43:21;;;;;;;4.83;4.47;;;;;;;22.30;21.05;95795.13;6193285;28;103107;-78
2022/03/11 10:46:25;;;;;;;4.70;4.37;;;;;;;22.30;20.86;95790.59;6171730;28;102814;-76
2022/03/11 10:49:33;;;;;;;4.17;3.87;;;;;;;22.31;21.12;95791.41;6193708;28;102683;-78
2022/03/11 10:52:46;;;;;;;4.40;4.10;;;;;;;22.30;20.75;95785.28;6174924;28;103151;-76
2022/03/11 10:55:48;;;;;;;4.50;4.20;;;;;;;22.30;20.73;95774.63;6189219;28;105578;-76
2022/03/11 10:58:50;;;;;;;4.23;3.93;;;;;;;22.26;20.74;95778.94;6191475;28;102702;-78
2022/03/11 11:01:53;;;;;;;9.03;8.27;;;;;;;22.24;21.01;95773.13;6190905;28;104765;-75
2022/03/11 11:04:55;;;;;;;7.43;6.83;;;;;;;22.28;20.90;95774.13;6190961;28;103479;-76
2022/03/11 11:07:59;;;;;;;8.50;7.77;;;;;;;22.25;21.11;95772.03;6185596;28;102880;-77
2022/03/11 11:11:01;;;;;;;8.23;7.53;;;;;;;22.20;20.91;95769.44;6175167;28;103089;-76
2022/03/11 11:14:06;;;;;;;7.77;7.17;;;;;;;22.18;21.45;95766.25;6191796;28;103053;-78
2022/03/11 11:17:10;;;;;;;8.57;7.87;;;;;;;22.15;20.90;95766.81;6192319;28;103382;-77
2022/03/11 11:20:33;;;;;;;8.10;7.40;;;;;;;22.13;21.03;95761.75;6188583;28;102799;-76
2022/03/11 11:23:37;;;;;;;8.30;7.70;;;;;;;22.09;21.26;95758.09;6187066;28;103507;-76
2022/03/11 11:26:41;;;;;;;7.93;7.13;;;;;;;22.08;21.32;95758.38;6168477;28;103386;-78
2022/03/11 11:29:43;;;;;;;7.60;7.00;;;;;;;22.07;21.21;95754.13;6145883;28;104030;-77
2022/03/11 11:32:45;;;;;;;7.93;7.33;;;;;;;22.03;21.18;95753.06;6167366;28;102990;-77
2022/03/11 11:35:56;;;;;;;7.83;7.20;;;;;;;22.03;21.29;95758.41;6170556;28;103045;-76
2022/03/11 11:39:06;;;;;;;7.77;7.17;;;;;;;22.01;21.28;95749.91;6169789;28;104293;-77
2022/03/11 11:42:13;;;;;;;7.10;6.60;;;;;;;21.98;21.10;95745.91;6165548;28;103515;-78
2022/03/11 11:45:18;;;;;;;7.70;7.10;;;;;;;21.98;20.91;95745.13;6153369;28;102792;-77
2022/03/11 11:48:42;;;;;;;7.60;7.00;;;;;;;21.96;21.12;95736.63;6156684;28;103224;-77
2022/03/11 11:51:44;;;;;;;7.17;6.57;;;;;;;21.94;21.22;95736.91;6166845;28;103083;-76
2022/03/11 11:54:46;;;;;;;7.03;6.43;;;;;;;21.96;21.29;95733.97;6153603;28;103412;-76
2022/03/11 11:57:49;;;;;;;6.60;6.10;;;;;;;21.93;21.44;95730.81;6171450;28;103411;-76
2022/03/11 12:00:55;;;;;;;7.00;6.50;;;;;;;;;;6152605;28;103170;-77
2022/03/11 12:03:57;;;;;;;7.10;6.60;;;;;;;21.94;21.38;95734.25;6149947;28;103068;-76
2022/03/11 12:07:09;;;;;;;7.17;6.67;;;;;;;21.93;21.37;95736.13;6155470;28;102858;-76
2022/03/11 12:10:24;;;;;;;7.03;6.53;;;;;;;;;;6173472;28;102885;-76
2022/03/11 12:13:33;;;;;;;6.97;6.47;;;;;;;21.92;21.41;95721.25;6151160;28;103605;-76
2022/03/11 12:17:06;;;;;;;6.97;6.37;;;;;;;21.94;21.34;95723.63;6174230;28;103576;-75
2022/03/11 12:20:49;;;;;;;6.73;6.23;;;;;;;21.94;21.18;95718.28;6155852;28;104247;-78
2022/03/11 12:23:51;;;;;;;7.20;6.50;;;;;;;21.93;21.25;95719.38;6161988;28;103065;-76
2022/03/11 12:26:52;;;;;;;6.70;6.10;;;;;;;21.91;21.27;95719.66;6200684;28;103656;-79
2022/03/11 12:30:06;;;;;;;6.93;6.43;;;;;;;21.89;21.17;95721.81;6200170;28;103040;-77
2022/03/11 12:33:15;;;;;;;7.13;6.63;;;;;;;21.91;21.04;95730.28;6180771;28;103143;-77
2022/03/11 12:36:19;;;;;;;7.03;6.43;;;;;;;21.91;21.35;95730.28;6177725;28;104456;-77
2022/03/11 12:39:28;;;;;;;6.50;6.00;;;;;;;21.90;21.50;95731.38;6181728;28;102653;-77
2022/03/11 12:42:41;;;;;;;6.90;6.33;;;;;;;21.90;21.20;95720.72;6181468;28;102807;-77
2022/03/11 12:45:49;;;;;;;6.70;6.20;;;;;;;21.93;21.11;95727.34;6191926;28;102722;-77
2022/03/11 12:48:51;;;;;;;5.90;5.50;;;;;;;21.90;21.39;95723.38;6196791;28;103542;-77
2022/03/11 12:51:53;;;;;;;6.00;5.60;;;;;;;21.90;21.37;95714.63;6176847;28;103084;-76
2022/03/11 12:54:54;;;;;;;6.00;5.60;;;;;;;21.89;21.33;95711.16;6177330;28;103369;-78
2022/03/11 12:58:09;;;;;;;6.30;5.80;;;;;;;21.88;21.26;95708.78;6190540;28;103148;-77
2022/03/11 13:01:12;;;;;;;6.70;6.10;;;;;;;21.87;21.26;95713.31;6188073;28;103917;-77
2022/03/11 13:04:14;;;;;;;6.20;5.70;;;;;;;21.87;21.37;95723.97;6187950;28;104940;-76
2022/03/11 13:07:36;;;;;;;17.93;16.50;;;;;;;21.94;21.47;95718.28;6185561;28;103581;-75
2022/03/11 13:10:38;;;;;;;9.13;8.43;;;;;;;21.98;21.51;95721.19;6166945;28;103154;-76
2022/03/11 13:13:41;;;;;;;8.07;7.47;;;;;;;21.92;21.38;95720.44;6168273;28;102817;-76
2022/03/11 13:16:43;;;;;;;7.93;7.33;;;;;;;21.89;21.46;95719.16;6186774;28;103003;-76
2022/03/11 13:19:45;;;;;;;8.40;7.70;;;;;;;21.88;21.48;95720.22;6183519;28;103554;-78
2022/03/11 13:22:50;;;;;;;7.90;7.10;;;;;;;21.86;21.40;95727.69;6187196;28;103684;-76
2022/03/11 13:25:54;;;;;;;8.20;7.40;;;;;;;21.88;21.36;95727.41;6187858;28;104355;-76
2022/03/11 13:29:07;;;;;;;7.90;7.20;;;;;;;21.90;21.11;95727.91;6189659;28;103917;-76
2022/03/11 13:32:09;;;;;;;7.60;7.00;;;;;;;21.88;21.42;95728.19;6185627;28;103430;-77
2022/03/11 13:35:11;;;;;;;6.80;6.30;;;;;;;21.87;21.55;95721.28;6170316;28;106372;-77
2022/03/11 13:38:32;;;;;;;7.53;6.93;;;;;;;21.88;21.25;95725.53;6188245;28;103000;-77
2022/03/11 13:41:46;;;;;;;7.17;6.63;;;;;;;21.86;21.29;95725.03;6185411;28;103077;-76
2022/03/11 13:44:48;;;;;;;7.90;7.30;;;;;;;21.99;21.13;95730.75;6169747;28;103142;-75
2022/03/11 13:48:05;;;;;;;10.27;9.47;;;;;;;21.94;21.40;95726.28;6190174;28;103058;-76
2022/03/11 13:51:09;;;;;;;10.23;9.40;;;;;;;21.91;21.37;95730.28;6191006;28;103511;-77
2022/03/11 13:54:32;;;;;;;10.40;9.60;;;;;;;21.90;21.38;95727.91;6169329;28;103991;-78
2022/03/11 13:57:36;;;;;;;10.07;9.27;;;;;;;21.87;21.39;95715.97;6173693;28;103665;-75
2022/03/11 14:00:38;;;;;;;10.13;9.43;;;;;;;21.88;21.31;95717.56;6189063;28;103014;-77
2022/03/11 14:03:47;;;;;;;9.33;8.63;;;;;;;21.86;21.51;95714.41;6186756;28;104574;-77
2022/03/11 14:06:50;;;;;;;9.40;8.60;;;;;;;21.86;21.44;95721.59;6171490;28;103248;-77
2022/03/11 14:09:55;;;;;;;9.00;8.30;;;;;;;21.85;21.09;95712.81;6190863;28;103286;-76
2022/03/11 14:13:06;;;;;;;9.90;9.20;;;;;;;21.85;21.44;95720.78;6190767;28;102981;-78